Pacific Dawn — 2AGH7 — position and weather

sailwx.info

Track history (hours):
 
Tides and Currents Weather Stations Pressure Air Temp Water Temp Dewpoint Dewpoint Depression Visibility Wind Speed Wind Dir Waves Ship Positions

Pacific Dawn

Last reported at 2018-Oct-24 00:00 UTC. Time now 2018-Oct-24 05:49 UTC.
Position S 23°18' E 152°24'.

Length 245 m; draft 8.3 m.

Type: Passenger vessel. MMSI: 235059368.

Wind from 180 at 5 knots

Barometer 1017.0 mb
Air temperature 25.0 ° C
Visibility: greater than 27.0 NM
Dewpoint 21.2 ° C
Water temperature 24.0 ° C

Date/timePositionNaut miles runAvg speedWind from/ knotsBaromVisibWave heightAir tempDewpointWater temp
2018-Oct-24 00:00S 23°18' E 152°24'18115.1 180 / 51017.027.0 25.021.224.0
2018-Oct-23 12:00S 26°12' E 153°18'2722.9 070 / 121015.810.8 23.020.723.0
2018-Oct-23 10:50S 26°39' E 153°15'514.6
2018-Oct-23 10:28S 26°42' E 153°11'713.3
2018-Oct-23 09:58S 26°49' E 153°10'613.6
2018-Oct-23 09:30S 26°55' E 153°12'716.5
2018-Oct-23 09:03S 27°02' E 153°15'115.3
2018-Oct-23 09:00S 27°02' E 153°16'815.2
2018-Oct-23 08:30S 27°08' E 153°21'715.5
2018-Oct-23 08:03S 27°15' E 153°19'117.4
2018-Oct-23 08:00S 27°15' E 153°18'814.7
2018-Oct-23 07:29S 27°20' E 153°11'410.2
2018-Oct-23 07:03S 27°24' E 153°09'0 7.7
2018-Oct-23 07:00S 27°24' E 153°09'3 6.5
2018-Oct-23 06:30S 27°27' E 153°06'2 4.1
2018-Oct-23 06:03S 27°27' E 153°04'0 1.4
2018-Oct-23 06:00S 27°26' E 153°04'0 0.0
2018-Oct-23 05:25S 27°26' E 153°04'0 0.0
2018-Oct-23 04:49S 27°26' E 153°04'0 0.0
2018-Oct-23 04:25S 27°26' E 153°04'0 0.0
2018-Oct-23 04:01S 27°26' E 153°04'0 0.0
2018-Oct-23 03:43S 27°26' E 153°04'0 0.0
2018-Oct-23 02:49S 27°26' E 153°04'0 0.0
2018-Oct-23 02:25S 27°26' E 153°04'0 0.0
2018-Oct-23 02:01S 27°26' E 153°04'0 0.0
2018-Oct-23 01:13S 27°26' E 153°04'0 0.0
2018-Oct-23 00:13S 27°26' E 153°04'0 0.0
2018-Oct-23 00:01S 27°26' E 153°04'0 0.0
2018-Oct-22 23:55S 27°26' E 153°04'0 0.0
2018-Oct-22 23:25S 27°26' E 153°04'0 0.0
2018-Oct-22 23:01S 27°26' E 153°04'0 0.0
2018-Oct-22 22:55S 27°26' E 153°04'0 0.0
2018-Oct-22 22:25S 27°26' E 153°04'0 0.0
2018-Oct-22 22:01S 27°26' E 153°04'0 0.0
2018-Oct-22 21:55S 27°26' E 153°04'0 0.0
2018-Oct-22 21:25S 27°26' E 153°04'0 0.0
2018-Oct-22 21:01S 27°26' E 153°04'0 0.0
2018-Oct-22 20:55S 27°26' E 153°04'0 0.0
2018-Oct-22 20:25S 27°26' E 153°04'0 0.0
2018-Oct-22 20:01S 27°26' E 153°04'0 0.0
2018-Oct-22 19:55S 27°26' E 153°04'0 0.2
2018-Oct-22 19:31S 27°27' E 153°04'3 6.2
2018-Oct-22 19:03S 27°26' E 153°07'0 8.3
2018-Oct-22 19:00S 27°26' E 153°08'3 7.1
2018-Oct-22 18:31S 27°23' E 153°10'511.4
2018-Oct-22 18:03S 27°18' E 153°13'112.8
2018-Oct-22 18:00S 27°18' E 153°13'714.4
2018-Oct-22 17:30S 27°14' E 153°20'716.3
2018-Oct-22 17:03S 27°07' E 153°20'117.1
2018-Oct-22 17:00S 27°06' E 153°19'815.7
2018-Oct-22 16:30S 26°60' E 153°14'716.5
2018-Oct-22 16:03S 26°53' E 153°10'115.1
2018-Oct-22 16:00S 26°52' E 153°10'1011.9
2018-Oct-22 15:10S 26°43' E 153°12'1 8.8
2018-Oct-22 15:00S 26°42' E 153°13'34 8.3
2018-Oct-22 11:00S 26°30' E 153°48'49 1.4 140 / 171015.710.8 23.019.924.0
2018-Oct-20 23:00S 25°42' E 154°00'50 5.4 360 / 101014.310.8 23.019.924.0
2018-Oct-20 13:40S 26°30' E 153°43'1510.3
2018-Oct-20 12:11S 26°39' E 153°29'210.3
2018-Oct-20 12:02S 26°39' E 153°28'110.3
2018-Oct-20 11:54S 26°40' E 153°26'510.5
2018-Oct-20 11:28S 26°42' E 153°21'511.2
2018-Oct-20 10:59S 26°42' E 153°16'8 8.4
2018-Oct-20 10:02S 26°49' E 153°10'011.7
2018-Oct-20 10:01S 26°49' E 153°10'713.5
2018-Oct-20 09:30S 26°55' E 153°12'816.8
2018-Oct-20 09:03S 27°02' E 153°15'116.7
2018-Oct-20 09:00S 27°03' E 153°16'815.5
2018-Oct-20 08:30S 27°09' E 153°21'715.6
2018-Oct-20 08:03S 27°16' E 153°17'116.6
2018-Oct-20 08:00S 27°16' E 153°17'714.1
2018-Oct-20 07:30S 27°21' E 153°11'4 9.2
2018-Oct-20 07:03S 27°25' E 153°09'0 5.5
2018-Oct-20 07:00S 27°25' E 153°09'3 6.3
2018-Oct-20 06:30S 27°27' E 153°06'2 3.5
2018-Oct-20 06:03S 27°26' E 153°04'0 0.1
2018-Oct-20 05:49S 27°26' E 153°04'0 0.0
2018-Oct-20 05:28S 27°26' E 153°04'0 0.0
2018-Oct-20 04:25S 27°26' E 153°04'0 0.0
2018-Oct-20 03:10S 27°26' E 153°04'0 0.0
2018-Oct-20 02:58S 27°26' E 153°04'0 0.0
2018-Oct-20 02:22S 27°26' E 153°04'0 0.0
2018-Oct-20 01:25S 27°26' E 153°04'0 0.0
2018-Oct-20 01:01S 27°26' E 153°04'0 0.0
2018-Oct-20 00:55S 27°26' E 153°04'0 0.0
2018-Oct-20 00:19S 27°26' E 153°04'0 0.0
2018-Oct-20 00:01S 27°26' E 153°04'0 0.0
2018-Oct-19 23:58S 27°26' E 153°04'0 0.0
2018-Oct-19 23:25S 27°26' E 153°04'0 0.0
2018-Oct-19 23:01S 27°26' E 153°04'0 0.0
2018-Oct-19 22:58S 27°26' E 153°04'0 0.0
2018-Oct-19 22:25S 27°26' E 153°04'0 0.0
2018-Oct-19 22:01S 27°26' E 153°04'0 0.0
2018-Oct-19 21:58S 27°26' E 153°04'0 0.0
2018-Oct-19 21:22S 27°26' E 153°04'0 0.0
2018-Oct-19 21:01S 27°26' E 153°04'0 0.0
2018-Oct-19 20:55S 27°26' E 153°04'0 0.0
2018-Oct-19 20:28S 27°26' E 153°04'0 0.0
2018-Oct-19 20:01S 27°26' E 153°04'0 0.0
2018-Oct-19 19:58S 27°26' E 153°04'0 0.1
2018-Oct-19 19:30S 27°26' E 153°04'2 5.3
2018-Oct-19 19:03S 27°26' E 153°07'0 7.6
2018-Oct-19 19:00S 27°26' E 153°07'3 6.9
2018-Oct-19 18:31S 27°23' E 153°09'510.2
2018-Oct-19 18:03S 27°19' E 153°12'113.5
2018-Oct-19 18:01S 27°19' E 153°12'816.1
2018-Oct-19 17:31S 27°14' E 153°20'816.9
2018-Oct-19 17:03S 27°07' E 153°20'116.8
2018-Oct-19 17:00S 27°06' E 153°19'815.9
2018-Oct-19 16:31S 26°60' E 153°14'816.7
2018-Oct-19 16:03S 26°53' E 153°10'116.0
2018-Oct-19 16:01S 26°52' E 153°10'1012.7
2018-Oct-19 15:15S 26°43' E 153°11'313.7
2018-Oct-19 15:03S 26°42' E 153°14'117.9
2018-Oct-19 15:00S 26°42' E 153°15'1317.7
2018-Oct-19 14:15S 26°36' E 153°28'1617.0
2018-Oct-19 13:17S 26°24' E 153°41'1017.7
2018-Oct-19 12:44S 26°21' E 153°52'718.7
2018-Oct-19 12:22S 26°17' E 153°58'918.7
2018-Oct-19 11:52S 26°11' E 154°06'918.3
2018-Oct-19 11:22S 26°06' E 154°14'45718.8
2018-Oct-18 11:00S 21°18' E 160°42'20617.2 120 / 131015.410.8 24.022.524.0
2018-Oct-17 23:00S 18°48' E 163°12'25218.0 130 / 171013.510.8 25.524.126.0
2018-Oct-17 09:00S 17°48' E 167°30'114 5.2 040 / 151012.710.8 27.024.127.0
2018-Oct-16 11:00S 19°42' E 167°24'165 7.3 110 / 431012.910.8 22.020.524.0
2018-Oct-15 12:18S 22°24' E 166°47'417.1
2018-Oct-15 12:03S 22°23' E 166°42'118.0
2018-Oct-15 12:00S 22°23' E 166°42'917.2
2018-Oct-15 11:30S 22°21' E 166°32'816.8
2018-Oct-15 11:04S 22°18' E 166°25'116.4
2018-Oct-15 11:00S 22°18' E 166°24'3 5.3
2018-Oct-15 10:30S 22°15' E 166°26'1 1.3
2018-Oct-15 10:00S 22°16' E 166°26'0 0.0
2018-Oct-15 09:30S 22°16' E 166°26'0 0.0
2018-Oct-15 09:03S 22°16' E 166°26'0 0.0
2018-Oct-15 09:00S 22°16' E 166°26'0 0.0
2018-Oct-15 08:27S 22°16' E 166°26'0 0.0
2018-Oct-15 08:03S 22°16' E 166°26'0 0.0
2018-Oct-15 08:00S 22°16' E 166°26'0 0.0
2018-Oct-15 07:30S 22°16' E 166°26'0 0.0
2018-Oct-15 07:03S 22°16' E 166°26'0 0.0
2018-Oct-15 07:00S 22°16' E 166°26'0 0.0
2018-Oct-15 06:30S 22°16' E 166°26'0 0.0
2018-Oct-15 06:03S 22°16' E 166°26'0 0.0
2018-Oct-15 05:57S 22°16' E 166°26'1 3.1
2018-Oct-15 05:30S 22°15' E 166°25'613.9
2018-Oct-15 05:03S 22°18' E 166°19'115.8
2018-Oct-15 05:00S 22°19' E 166°18'713.6
2018-Oct-15 04:30S 22°23' E 166°13'814.9
2018-Oct-15 03:58S 22°25' E 166°04'7715.4
2018-Oct-14 23:00S 22°36' E 164°42'21519.6 110 / 401016.010.8 22.018.923.0
2018-Oct-14 12:00S 23°24' E 160°54'20617.2 080 / 241016.510.8 20.018.423.0
2018-Oct-14 00:00S 24°24' E 157°18'   030 / 131016.410.8 23.019.923.0
Track history (hours):
 
Tides and Currents Weather Stations Pressure Air Temp Water Temp Dewpoint Dewpoint Depression Visibility Wind Speed Wind Dir Waves Ship Positions

Pacific Dawn

Last reported at 2018-Oct-24 00:00 UTC. Time now 2018-Oct-24 05:49 UTC.
Position S 23°18' E 152°24'.

Length 245 m; draft 8.3 m.

Type: Passenger vessel. MMSI: 235059368.

Wind from 180 at 5 knots

Barometer 1017.0 mb
Air temperature 25.0 ° C
Visibility: greater than 27.0 NM
Dewpoint 21.2 ° C
Water temperature 24.0 ° C

Date/timePositionNaut miles runAvg speedWind from/ knotsBaromVisibWave heightAir tempDewpointWater temp
2018-Oct-24 00:00S 23°18' E 152°24'18115.1 180 / 51017.027.0 25.021.224.0
2018-Oct-23 12:00S 26°12' E 153°18'2722.9 070 / 121015.810.8 23.020.723.0
2018-Oct-23 10:50S 26°39' E 153°15'514.6
2018-Oct-23 10:28S 26°42' E 153°11'713.3
2018-Oct-23 09:58S 26°49' E 153°10'613.6
2018-Oct-23 09:30S 26°55' E 153°12'716.5
2018-Oct-23 09:03S 27°02' E 153°15'115.3
2018-Oct-23 09:00S 27°02' E 153°16'815.2
2018-Oct-23 08:30S 27°08' E 153°21'715.5
2018-Oct-23 08:03S 27°15' E 153°19'117.4
2018-Oct-23 08:00S 27°15' E 153°18'814.7
2018-Oct-23 07:29S 27°20' E 153°11'410.2
2018-Oct-23 07:03S 27°24' E 153°09'0 7.7
2018-Oct-23 07:00S 27°24' E 153°09'3 6.5
2018-Oct-23 06:30S 27°27' E 153°06'2 4.1
2018-Oct-23 06:03S 27°27' E 153°04'0 1.4
2018-Oct-23 06:00S 27°26' E 153°04'0 0.0
2018-Oct-23 05:25S 27°26' E 153°04'0 0.0
2018-Oct-23 04:49S 27°26' E 153°04'0 0.0
2018-Oct-23 04:25S 27°26' E 153°04'0 0.0
2018-Oct-23 04:01S 27°26' E 153°04'0 0.0
2018-Oct-23 03:43S 27°26' E 153°04'0 0.0
2018-Oct-23 02:49S 27°26' E 153°04'0 0.0
2018-Oct-23 02:25S 27°26' E 153°04'0 0.0
2018-Oct-23 02:01S 27°26' E 153°04'0 0.0
2018-Oct-23 01:13S 27°26' E 153°04'0 0.0
2018-Oct-23 00:13S 27°26' E 153°04'0 0.0
2018-Oct-23 00:01S 27°26' E 153°04'0 0.0
2018-Oct-22 23:55S 27°26' E 153°04'0 0.0
2018-Oct-22 23:25S 27°26' E 153°04'0 0.0
2018-Oct-22 23:01S 27°26' E 153°04'0 0.0
2018-Oct-22 22:55S 27°26' E 153°04'0 0.0
2018-Oct-22 22:25S 27°26' E 153°04'0 0.0
2018-Oct-22 22:01S 27°26' E 153°04'0 0.0
2018-Oct-22 21:55S 27°26' E 153°04'0 0.0
2018-Oct-22 21:25S 27°26' E 153°04'0 0.0
2018-Oct-22 21:01S 27°26' E 153°04'0 0.0
2018-Oct-22 20:55S 27°26' E 153°04'0 0.0
2018-Oct-22 20:25S 27°26' E 153°04'0 0.0
2018-Oct-22 20:01S 27°26' E 153°04'0 0.0
2018-Oct-22 19:55S 27°26' E 153°04'0 0.2
2018-Oct-22 19:31S 27°27' E 153°04'3 6.2
2018-Oct-22 19:03S 27°26' E 153°07'0 8.3
2018-Oct-22 19:00S 27°26' E 153°08'3 7.1
2018-Oct-22 18:31S 27°23' E 153°10'511.4
2018-Oct-22 18:03S 27°18' E 153°13'112.8
2018-Oct-22 18:00S 27°18' E 153°13'714.4
2018-Oct-22 17:30S 27°14' E 153°20'716.3
2018-Oct-22 17:03S 27°07' E 153°20'117.1
2018-Oct-22 17:00S 27°06' E 153°19'815.7
2018-Oct-22 16:30S 26°60' E 153°14'716.5
2018-Oct-22 16:03S 26°53' E 153°10'115.1
2018-Oct-22 16:00S 26°52' E 153°10'1011.9
2018-Oct-22 15:10S 26°43' E 153°12'1 8.8
2018-Oct-22 15:00S 26°42' E 153°13'34 8.3
2018-Oct-22 11:00S 26°30' E 153°48'49 1.4 140 / 171015.710.8 23.019.924.0
2018-Oct-20 23:00S 25°42' E 154°00'50 5.4 360 / 101014.310.8 23.019.924.0
2018-Oct-20 13:40S 26°30' E 153°43'1510.3
2018-Oct-20 12:11S 26°39' E 153°29'210.3
2018-Oct-20 12:02S 26°39' E 153°28'110.3
2018-Oct-20 11:54S 26°40' E 153°26'510.5
2018-Oct-20 11:28S 26°42' E 153°21'511.2
2018-Oct-20 10:59S 26°42' E 153°16'8 8.4
2018-Oct-20 10:02S 26°49' E 153°10'011.7
2018-Oct-20 10:01S 26°49' E 153°10'713.5
2018-Oct-20 09:30S 26°55' E 153°12'816.8
2018-Oct-20 09:03S 27°02' E 153°15'116.7
2018-Oct-20 09:00S 27°03' E 153°16'815.5
2018-Oct-20 08:30S 27°09' E 153°21'715.6
2018-Oct-20 08:03S 27°16' E 153°17'116.6
2018-Oct-20 08:00S 27°16' E 153°17'714.1
2018-Oct-20 07:30S 27°21' E 153°11'4 9.2
2018-Oct-20 07:03S 27°25' E 153°09'0 5.5
2018-Oct-20 07:00S 27°25' E 153°09'3 6.3
2018-Oct-20 06:30S 27°27' E 153°06'2 3.5
2018-Oct-20 06:03S 27°26' E 153°04'0 0.1
2018-Oct-20 05:49S 27°26' E 153°04'0 0.0
2018-Oct-20 05:28S 27°26' E 153°04'0 0.0
2018-Oct-20 04:25S 27°26' E 153°04'0 0.0
2018-Oct-20 03:10S 27°26' E 153°04'0 0.0
2018-Oct-20 02:58S 27°26' E 153°04'0 0.0
2018-Oct-20 02:22S 27°26' E 153°04'0 0.0
2018-Oct-20 01:25S 27°26' E 153°04'0 0.0
2018-Oct-20 01:01S 27°26' E 153°04'0 0.0
2018-Oct-20 00:55S 27°26' E 153°04'0 0.0
2018-Oct-20 00:19S 27°26' E 153°04'0 0.0
2018-Oct-20 00:01S 27°26' E 153°04'0 0.0
2018-Oct-19 23:58S 27°26' E 153°04'0 0.0
2018-Oct-19 23:25S 27°26' E 153°04'0 0.0
2018-Oct-19 23:01S 27°26' E 153°04'0 0.0
2018-Oct-19 22:58S 27°26' E 153°04'0 0.0
2018-Oct-19 22:25S 27°26' E 153°04'0 0.0
2018-Oct-19 22:01S 27°26' E 153°04'0 0.0
2018-Oct-19 21:58S 27°26' E 153°04'0 0.0
2018-Oct-19 21:22S 27°26' E 153°04'0 0.0
2018-Oct-19 21:01S 27°26' E 153°04'0 0.0
2018-Oct-19 20:55S 27°26' E 153°04'0 0.0
2018-Oct-19 20:28S 27°26' E 153°04'0 0.0
2018-Oct-19 20:01S 27°26' E 153°04'0 0.0
2018-Oct-19 19:58S 27°26' E 153°04'0 0.1
2018-Oct-19 19:30S 27°26' E 153°04'2 5.3
2018-Oct-19 19:03S 27°26' E 153°07'0 7.6
2018-Oct-19 19:00S 27°26' E 153°07'3 6.9
2018-Oct-19 18:31S 27°23' E 153°09'510.2
2018-Oct-19 18:03S 27°19' E 153°12'113.5
2018-Oct-19 18:01S 27°19' E 153°12'816.1
2018-Oct-19 17:31S 27°14' E 153°20'816.9
2018-Oct-19 17:03S 27°07' E 153°20'116.8
2018-Oct-19 17:00S 27°06' E 153°19'815.9
2018-Oct-19 16:31S 26°60' E 153°14'816.7
2018-Oct-19 16:03S 26°53' E 153°10'116.0
2018-Oct-19 16:01S 26°52' E 153°10'1012.7
2018-Oct-19 15:15S 26°43' E 153°11'313.7
2018-Oct-19 15:03S 26°42' E 153°14'117.9
2018-Oct-19 15:00S 26°42' E 153°15'1317.7
2018-Oct-19 14:15S 26°36' E 153°28'1617.0
2018-Oct-19 13:17S 26°24' E 153°41'1017.7
2018-Oct-19 12:44S 26°21' E 153°52'718.7
2018-Oct-19 12:22S 26°17' E 153°58'918.7
2018-Oct-19 11:52S 26°11' E 154°06'918.3
2018-Oct-19 11:22S 26°06' E 154°14'45718.8
2018-Oct-18 11:00S 21°18' E 160°42'20617.2 120 / 131015.410.8 24.022.524.0
2018-Oct-17 23:00S 18°48' E 163°12'25218.0 130 / 171013.510.8 25.524.126.0
2018-Oct-17 09:00S 17°48' E 167°30'114 5.2 040 / 151012.710.8 27.024.127.0
2018-Oct-16 11:00S 19°42' E 167°24'165 7.3 110 / 431012.910.8 22.020.524.0
2018-Oct-15 12:18S 22°24' E 166°47'417.1
2018-Oct-15 12:03S 22°23' E 166°42'118.0
2018-Oct-15 12:00S 22°23' E 166°42'917.2
2018-Oct-15 11:30S 22°21' E 166°32'816.8
2018-Oct-15 11:04S 22°18' E 166°25'116.4
2018-Oct-15 11:00S 22°18' E 166°24'3 5.3
2018-Oct-15 10:30S 22°15' E 166°26'1 1.3
2018-Oct-15 10:00S 22°16' E 166°26'0 0.0
2018-Oct-15 09:30S 22°16' E 166°26'0 0.0
2018-Oct-15 09:03S 22°16' E 166°26'0 0.0
2018-Oct-15 09:00S 22°16' E 166°26'0 0.0
2018-Oct-15 08:27S 22°16' E 166°26'0 0.0
2018-Oct-15 08:03S 22°16' E 166°26'0 0.0
2018-Oct-15 08:00S 22°16' E 166°26'0 0.0
2018-Oct-15 07:30S 22°16' E 166°26'0 0.0
2018-Oct-15 07:03S 22°16' E 166°26'0 0.0
2018-Oct-15 07:00S 22°16' E 166°26'0 0.0
2018-Oct-15 06:30S 22°16' E 166°26'0 0.0
2018-Oct-15 06:03S 22°16' E 166°26'0 0.0
2018-Oct-15 05:57S 22°16' E 166°26'1 3.1
2018-Oct-15 05:30S 22°15' E 166°25'613.9
2018-Oct-15 05:03S 22°18' E 166°19'115.8
2018-Oct-15 05:00S 22°19' E 166°18'713.6
2018-Oct-15 04:30S 22°23' E 166°13'814.9
2018-Oct-15 03:58S 22°25' E 166°04'7715.4
2018-Oct-14 23:00S 22°36' E 164°42'21519.6 110 / 401016.010.8 22.018.923.0
2018-Oct-14 12:00S 23°24' E 160°54'20617.2 080 / 241016.510.8 20.018.423.0
2018-Oct-14 00:00S 24°24' E 157°18'   030 / 131016.410.8 23.019.923.0

Dump ship's entire track history